Time;durP1;ratioP1;P1;durP2;ratioP2;P2;SDS_P1;SDS_P2;PMS_P1;PMS_P2;Temp;Humidity;BMP_temperature;BMP_pressure;BME280_temperature;BME280_humidity;BME280_pressure;Samples;Min_cycle;Max_cycle;Signal;HPM_P1;HPM_P2
2022/07/09 00:02:21;;;;;;;;;;;16.70;99.90;;;;;;5092234;28;20075;-56
2022/07/09 00:04:49;;;;;;;;;;;16.70;99.90;;;;;;5092068;28;19927;-54
2022/07/09 00:07:16;;;;;;;;;;;16.70;99.90;;;;;;5092236;28;19920;-55
2022/07/09 00:09:44;;;;;;;;;;;16.70;99.90;;;;;;5091101;28;19920;-56
2022/07/09 00:12:11;;;;;;;;;;;16.70;99.90;;;;;;5092756;28;19920;-59
2022/07/09 00:14:39;;;;;;;;;;;16.70;99.90;;;;;;5089662;28;19919;-58
2022/07/09 00:17:06;;;;;;;;;;;16.70;99.90;;;;;;5091307;28;20371;-59
2022/07/09 00:19:34;;;;;;;;;;;16.70;99.90;;;;;;5091838;28;19924;-60
2022/07/09 00:22:02;;;;;;;;;;;16.70;99.90;;;;;;5092233;28;19920;-61
2022/07/09 00:24:29;;;;;;;;;;;16.70;99.90;;;;;;5091569;28;19927;-61
2022/07/09 00:26:57;;;;;;;;;;;16.70;99.90;;;;;;5092404;28;19927;-61
2022/07/09 00:29:24;;;;;;;;;;;16.70;99.90;;;;;;5091816;28;19950;-58
2022/07/09 00:31:51;;;;;;;;;;;16.70;99.90;;;;;;5091938;28;19920;-60
2022/07/09 00:34:19;;;;;;;;;;;16.70;99.90;;;;;;5091563;28;19920;-59
2022/07/09 00:36:46;;;;;;;;;;;16.60;99.90;;;;;;5091722;28;19920;-60
2022/07/09 00:39:14;;;;;;;;;;;16.60;99.90;;;;;;5091604;28;20282;-59
2022/07/09 00:41:41;;;;;;;;;;;16.50;99.90;;;;;;5090588;28;19927;-56
2022/07/09 00:44:09;;;;;;;;;;;16.40;99.90;;;;;;5091421;28;20367;-57
2022/07/09 00:46:36;;;;;;;;;;;16.30;99.90;;;;;;5091630;28;19924;-58
2022/07/09 00:49:05;;;;;;;;;;;16.20;99.90;;;;;;5091483;28;19920;-59
2022/07/09 00:51:33;;;;;;;;;;;16.20;99.90;;;;;;5091568;28;19927;-59
2022/07/09 00:54:01;;;;;;;;;;;16.10;99.90;;;;;;5091401;28;20371;-61
2022/07/09 00:56:29;;;;;;;;;;;16.10;99.90;;;;;;5091718;28;19924;-57
2022/07/09 00:58:57;;;;;;;;;;;16.10;99.90;;;;;;5091680;28;19927;-58
2022/07/09 01:01:24;;;;;;;;;;;16.10;99.90;;;;;;5090886;28;19920;-57
2022/07/09 01:03:52;;;;;;;;;;;16.10;99.90;;;;;;5087647;28;20382;-56
2022/07/09 01:06:19;;;;;;;;;;;16.20;99.90;;;;;;5087950;28;19931;-57
2022/07/09 01:08:47;;;;;;;;;;;16.20;99.90;;;;;;5090001;28;20315;-56
2022/07/09 01:11:15;;;;;;;;;;;16.20;99.90;;;;;;5090996;28;19920;-59
2022/07/09 01:13:43;;;;;;;;;;;16.20;99.90;;;;;;5090928;28;19924;-56
2022/07/09 01:16:16;;;;;;;;;;;16.20;99.90;;;;;;5091204;28;20282;-59
2022/07/09 01:18:45;;;;;;;;;;;16.30;99.90;;;;;;5090768;28;19927;-60
2022/07/09 01:21:15;;;;;;;;;;;16.30;99.90;;;;;;5088951;28;19926;-60
2022/07/09 01:23:43;;;;;;;;;;;16.30;99.90;;;;;;5090659;28;19924;-58
2022/07/09 01:26:10;;;;;;;;;;;16.30;99.90;;;;;;5089523;28;19927;-55
2022/07/09 01:28:38;;;;;;;;;;;16.30;99.90;;;;;;5091786;28;20444;-56
2022/07/09 01:31:05;;;;;;;;;;;16.30;99.90;;;;;;5094221;28;19920;-55
2022/07/09 01:33:33;;;;;;;;;;;16.30;99.90;;;;;;5109694;28;19931;-55
2022/07/09 01:36:00;;;;;;;;;;;16.30;99.90;;;;;;5094125;28;19923;-57
2022/07/09 01:38:28;;;;;;;;;;;16.30;99.90;;;;;;5092248;28;19954;-55
2022/07/09 01:40:57;;;;;;;;;;;16.30;99.90;;;;;;5093749;28;19920;-55
2022/07/09 01:43:25;;;;;;;;;;;16.30;99.90;;;;;;5093690;28;19920;-55
2022/07/09 01:45:52;;;;;;;;;;;16.30;99.90;;;;;;5098795;28;19920;-55
2022/07/09 01:48:20;;;;;;;;;;;16.30;99.90;;;;;;5114128;28;20394;-55
2022/07/09 01:50:47;;;;;;;;;;;16.40;99.90;;;;;;5112784;28;20287;-55
2022/07/09 01:53:14;;;;;;;;;;;16.40;99.90;;;;;;5114069;28;19920;-55
2022/07/09 01:55:42;;;;;;;;;;;16.40;99.90;;;;;;5114306;28;19926;-55
2022/07/09 01:58:09;;;;;;;;;;;16.40;99.90;;;;;;5113550;28;19919;-55
2022/07/09 02:00:37;;;;;;;;;;;16.40;99.90;;;;;;5113931;28;19919;-55
2022/07/09 02:03:04;;;;;;;;;;;16.40;99.90;;;;;;5113850;28;19919;-55
2022/07/09 02:05:31;;;;;;;;;;;16.50;99.90;;;;;;5112289;28;20429;-56
2022/07/09 02:07:59;;;;;;;;;;;16.50;99.90;;;;;;5113872;28;20379;-55
2022/07/09 02:10:26;;;;;;;;;;;16.50;99.90;;;;;;5113476;28;19920;-57
2022/07/09 02:12:54;;;;;;;;;;;16.50;99.90;;;;;;5113508;28;20304;-56
2022/07/09 02:15:21;;;;;;;;;;;16.50;99.90;;;;;;5113427;28;19919;-55
2022/07/09 02:17:49;;;;;;;;;;;16.50;99.90;;;;;;5113605;28;19926;-54
2022/07/09 02:20:16;;;;;;;;;;;16.50;99.90;;;;;;5113572;28;19920;-56
2022/07/09 02:22:44;;;;;;;;;;;16.50;99.90;;;;;;5113632;28;19919;-58
2022/07/09 02:25:11;;;;;;;;;;;16.60;99.90;;;;;;5113192;28;19926;-59
2022/07/09 02:27:39;;;;;;;;;;;16.60;99.90;;;;;;5113389;28;19920;-58
2022/07/09 02:30:06;;;;;;;;;;;16.50;99.90;;;;;;5113206;28;19919;-59
2022/07/09 02:32:36;;;;;;;;;;;16.50;99.90;;;;;;5113435;28;19919;-60
2022/07/09 02:35:03;;;;;;;;;;;16.50;99.90;;;;;;5113348;28;19923;-59
2022/07/09 02:37:32;;;;;;;;;;;16.50;99.90;;;;;;5111873;28;19943;-60
2022/07/09 02:39:59;;;;;;;;;;;16.50;99.90;;;;;;5113258;28;19920;-59
2022/07/09 02:42:27;;;;;;;;;;;16.50;99.90;;;;;;5113055;28;19919;-58
2022/07/09 02:44:54;;;;;;;;;;;16.40;99.90;;;;;;5113158;28;19931;-59
2022/07/09 02:47:22;;;;;;;;;;;16.40;99.90;;;;;;5112866;28;19928;-61
2022/07/09 02:49:49;;;;;;;;;;;16.40;99.90;;;;;;5112970;28;19920;-58
2022/07/09 02:52:17;;;;;;;;;;;16.40;99.90;;;;;;5113036;28;19924;-56
2022/07/09 02:54:44;;;;;;;;;;;16.40;99.90;;;;;;5112846;28;19919;-59
2022/07/09 02:57:13;;;;;;;;;;;16.40;99.90;;;;;;5112881;28;19927;-59
2022/07/09 02:59:40;;;;;;;;;;;16.40;99.90;;;;;;5111539;28;19926;-59
2022/07/09 03:02:07;;;;;;;;;;;16.50;99.90;;;;;;5113129;28;19926;-59
2022/07/09 03:04:35;;;;;;;;;;;16.50;99.90;;;;;;5112247;28;19921;-58
2022/07/09 03:07:02;;;;;;;;;;;16.50;99.90;;;;;;5112590;28;19934;-57
2022/07/09 03:09:30;;;;;;;;;;;16.50;99.90;;;;;;5113020;28;19920;-59
2022/07/09 03:11:57;;;;;;;;;;;16.60;99.90;;;;;;5112599;28;19927;-59
2022/07/09 03:14:25;;;;;;;;;;;16.60;99.90;;;;;;5112577;28;19926;-58
2022/07/09 03:16:52;;;;;;;;;;;16.60;99.90;;;;;;5112763;28;19920;-60
2022/07/09 03:19:19;;;;;;;;;;;16.60;99.90;;;;;;5111212;28;20267;-60
2022/07/09 03:21:48;;;;;;;;;;;16.60;99.90;;;;;;5112890;28;19927;-55
2022/07/09 03:24:15;;;;;;;;;;;16.60;99.90;;;;;;5112176;28;20405;-55
2022/07/09 03:26:42;;;;;;;;;;;16.60;99.90;;;;;;5112465;28;19919;-58
2022/07/09 03:29:10;;;;;;;;;;;16.60;99.90;;;;;;5112365;28;19931;-57
2022/07/09 03:31:38;;;;;;;;;;;16.60;99.90;;;;;;5112251;28;19931;-59
2022/07/09 03:34:05;;;;;;;;;;;16.60;99.90;;;;;;5112504;28;19923;-58
2022/07/09 03:36:33;;;;;;;;;;;16.60;99.90;;;;;;5112538;28;20294;-57
2022/07/09 03:39:00;;;;;;;;;;;16.60;99.90;;;;;;5111178;28;19919;-55
2022/07/09 03:41:28;;;;;;;;;;;16.60;99.90;;;;;;5111056;28;19919;-58
2022/07/09 03:43:55;;;;;;;;;;;16.60;99.90;;;;;;5112576;28;19920;-59
2022/07/09 03:46:23;;;;;;;;;;;16.50;99.90;;;;;;5111352;28;19927;-59
2022/07/09 03:48:51;;;;;;;;;;;16.50;99.90;;;;;;5112451;28;19920;-56
2022/07/09 03:51:18;;;;;;;;;;;16.50;99.90;;;;;;5112008;28;19920;-58
2022/07/09 03:53:46;;;;;;;;;;;16.50;99.90;;;;;;5111903;28;20371;-56
2022/07/09 03:56:13;;;;;;;;;;;16.60;99.90;;;;;;5112221;28;19986;-55
2022/07/09 03:58:43;;;;;;;;;;;16.60;99.90;;;;;;5111971;28;19927;-59
2022/07/09 04:01:10;;;;;;;;;;;16.60;99.90;;;;;;5110968;28;19923;-56
2022/07/09 04:03:38;;;;;;;;;;;16.50;99.90;;;;;;5112129;28;19945;-56
2022/07/09 04:06:06;;;;;;;;;;;16.50;99.90;;;;;;5112127;28;19927;-55
2022/07/09 04:08:33;;;;;;;;;;;16.60;99.90;;;;;;5112098;28;19927;-56
2022/07/09 04:11:02;;;;;;;;;;;16.50;99.90;;;;;;5112205;28;19920;-55
2022/07/09 04:13:29;;;;;;;;;;;16.50;99.90;;;;;;5108104;28;19920;-55
2022/07/09 04:15:57;;;;;;;;;;;16.50;99.90;;;;;;5112312;28;19920;-55
2022/07/09 04:18:24;;;;;;;;;;;16.50;99.90;;;;;;5115775;28;19927;-55
2022/07/09 04:20:54;;;;;;;;;;;16.50;99.90;;;;;;5114188;28;20394;-55
2022/07/09 04:23:21;;;;;;;;;;;16.50;99.90;;;;;;5116151;28;19919;-54
2022/07/09 04:25:50;;;;;;;;;;;16.50;99.90;;;;;;5114313;28;19920;-55
2022/07/09 04:28:18;;;;;;;;;;;16.40;99.90;;;;;;5114760;28;19920;-58
2022/07/09 04:30:46;;;;;;;;;;;16.40;99.90;;;;;;5115364;28;20322;-57
2022/07/09 04:33:13;;;;;;;;;;;16.40;99.90;;;;;;5115575;28;19920;-57
2022/07/09 04:35:41;;;;;;;;;;;16.40;99.90;;;;;;5115636;28;19920;-59
2022/07/09 04:38:08;;;;;;;;;;;16.40;99.90;;;;;;5113769;28;20370;-60
2022/07/09 04:40:35;;;;;;;;;;;16.40;99.90;;;;;;5114206;28;20409;-60
2022/07/09 04:43:03;;;;;;;;;;;16.30;99.90;;;;;;5115489;28;19927;-59
2022/07/09 04:45:31;;;;;;;;;;;16.40;99.90;;;;;;5113949;28;20325;-57
2022/07/09 04:47:59;;;;;;;;;;;16.40;99.90;;;;;;5105522;28;19920;-60
2022/07/09 04:50:26;;;;;;;;;;;16.40;99.90;;;;;;5091713;28;20033;-59
2022/07/09 04:52:54;;;;;;;;;;;16.40;99.90;;;;;;5091434;28;19920;-59
2022/07/09 04:55:22;;;;;;;;;;;16.40;99.90;;;;;;5091435;28;19924;-60
2022/07/09 04:57:49;;;;;;;;;;;16.40;99.90;;;;;;5091277;28;19920;-59
2022/07/09 05:00:16;;;;;;;;;;;16.30;99.90;;;;;;5090009;28;19920;-60
2022/07/09 05:02:44;;;;;;;;;;;16.30;99.90;;;;;;5093345;28;20372;-61
2022/07/09 05:05:13;;;;;;;;;;;16.30;99.90;;;;;;5103085;28;19920;-63
2022/07/09 05:07:43;;;;;;;;;;;16.30;99.90;;;;;;5087703;28;19927;-59
2022/07/09 05:10:11;;;;;;;;;;;16.30;99.90;;;;;;5086570;28;19920;-59
2022/07/09 05:12:39;;;;;;;;;;;16.20;99.90;;;;;;5090559;28;19920;-61
2022/07/09 05:15:08;;;;;;;;;;;16.20;99.90;;;;;;5090880;28;19927;-60
2022/07/09 05:17:35;;;;;;;;;;;16.10;99.90;;;;;;5091219;28;19931;-60
2022/07/09 05:20:03;;;;;;;;;;;16.10;99.90;;;;;;5086960;28;20295;-57
2022/07/09 05:22:32;;;;;;;;;;;16.10;99.90;;;;;;5090218;28;19920;-60
2022/07/09 05:24:59;;;;;;;;;;;16.10;99.90;;;;;;5089448;28;19920;-56
2022/07/09 05:27:27;;;;;;;;;;;16.20;99.90;;;;;;5087125;28;20346;-56
2022/07/09 05:29:55;;;;;;;;;;;16.20;99.90;;;;;;5087252;28;20307;-55
2022/07/09 05:32:22;;;;;;;;;;;16.20;99.90;;;;;;5094713;28;19931;-55
2022/07/09 05:34:51;;;;;;;;;;;16.10;99.90;;;;;;5090632;28;19936;-58
2022/07/09 05:37:18;;;;;;;;;;;16.20;99.90;;;;;;5105354;28;19919;-61
2022/07/09 05:39:46;;;;;;;;;;;16.10;99.90;;;;;;5087243;28;19924;-58
2022/07/09 05:42:13;;;;;;;;;;;16.10;99.90;;;;;;5087238;28;19935;-59
2022/07/09 05:44:41;;;;;;;;;;;16.10;99.90;;;;;;5086959;28;19920;-55
2022/07/09 05:47:08;;;;;;;;;;;16.00;99.90;;;;;;5089187;28;20366;-60
2022/07/09 05:49:36;;;;;;;;;;;16.00;99.90;;;;;;5090267;28;19920;-58
2022/07/09 05:52:03;;;;;;;;;;;16.00;99.90;;;;;;5095332;28;19922;-56
2022/07/09 05:54:31;;;;;;;;;;;16.00;99.90;;;;;;5085335;28;19949;-60
2022/07/09 05:56:58;;;;;;;;;;;15.90;99.90;;;;;;5088802;28;19931;-59
2022/07/09 05:59:26;;;;;;;;;;;15.90;99.90;;;;;;5090104;28;19924;-59
2022/07/09 06:01:53;;;;;;;;;;;15.80;99.90;;;;;;5091095;28;19920;-59
2022/07/09 06:04:20;;;;;;;;;;;15.80;99.90;;;;;;5110854;28;19931;-56
2022/07/09 06:06:48;;;;;;;;;;;15.80;99.90;;;;;;5095597;28;19920;-59
2022/07/09 06:09:16;;;;;;;;;;;15.80;99.90;;;;;;5090051;28;19927;-60
2022/07/09 06:11:43;;;;;;;;;;;15.90;99.90;;;;;;5097387;28;19920;-58
2022/07/09 06:14:11;;;;;;;;;;;15.90;99.90;;;;;;5089513;28;19924;-58
2022/07/09 06:16:38;;;;;;;;;;;16.00;99.90;;;;;;5088756;28;19920;-60
2022/07/09 06:19:06;;;;;;;;;;;16.00;99.90;;;;;;5086708;28;19923;-59
2022/07/09 06:21:34;;;;;;;;;;;16.00;99.90;;;;;;5097239;28;19920;-57
2022/07/09 06:24:02;;;;;;;;;;;16.10;99.90;;;;;;5091975;28;19920;-59
2022/07/09 06:26:31;;;;;;;;;;;16.10;99.90;;;;;;5088579;28;19927;-56
2022/07/09 06:28:58;;;;;;;;;;;16.20;99.90;;;;;;5071807;28;19924;-61
2022/07/09 06:31:26;;;;;;;;;;;16.20;99.90;;;;;;5096352;28;19955;-57
2022/07/09 06:33:53;;;;;;;;;;;16.30;99.90;;;;;;5091754;28;19935;-56
2022/07/09 06:36:26;;;;;;;;;;;16.40;99.90;;;;;;5089525;28;20264;-56
2022/07/09 06:41:40;;;;;;;;;;;16.40;99.90;;;;;;5106183;28;19924;-55
2022/07/09 06:44:07;;;;;;;;;;;16.40;99.90;;;;;;5106037;28;19919;-54
2022/07/09 06:46:36;;;;;;;;;;;16.40;99.90;;;;;;5105043;28;20110;-55
2022/07/09 06:49:03;;;;;;;;;;;16.40;99.90;;;;;;5093243;28;19927;-54
2022/07/09 06:51:30;;;;;;;;;;;16.50;99.90;;;;;;5089940;28;19942;-54
2022/07/09 06:53:58;;;;;;;;;;;16.40;99.90;;;;;;5105203;28;19928;-58
2022/07/09 06:56:25;;;;;;;;;;;16.40;99.90;;;;;;5109759;28;19927;-58
2022/07/09 06:58:53;;;;;;;;;;;16.40;99.90;;;;;;5099052;28;19924;-58
2022/07/09 07:01:20;;;;;;;;;;;16.50;99.90;;;;;;5107354;28;19920;-58
2022/07/09 07:03:48;;;;;;;;;;;16.50;99.90;;;;;;5106213;27;19939;-61
2022/07/09 07:06:16;;;;;;;;;;;16.50;99.90;;;;;;5088198;28;19928;-59
2022/07/09 07:08:43;;;;;;;;;;;16.60;99.90;;;;;;5106222;28;19919;-59
2022/07/09 07:11:10;;;;;;;;;;;16.60;99.90;;;;;;5109463;28;19927;-60
2022/07/09 07:13:38;;;;;;;;;;;16.50;99.90;;;;;;5097991;28;19964;-60
2022/07/09 07:16:06;;;;;;;;;;;16.50;99.90;;;;;;5109452;28;19920;-61
2022/07/09 07:18:33;;;;;;;;;;;16.50;99.90;;;;;;5096876;28;19986;-60
2022/07/09 07:21:01;;;;;;;;;;;16.50;99.90;;;;;;5089129;28;20397;-61
2022/07/09 07:23:31;;;;;;;;;;;16.50;99.90;;;;;;5095205;28;19926;-60
2022/07/09 07:25:59;;;;;;;;;;;16.50;99.90;;;;;;5090715;28;20394;-59
2022/07/09 07:28:27;;;;;;;;;;;16.50;99.90;;;;;;5097230;28;20375;-59
2022/07/09 07:30:54;;;;;;;;;;;16.60;99.90;;;;;;5093993;28;19923;-57
2022/07/09 07:33:22;;;;;;;;;;;16.60;99.90;;;;;;5099969;28;19920;-59
2022/07/09 07:35:49;;;;;;;;;;;16.70;99.90;;;;;;5087804;28;20298;-57
2022/07/09 07:38:17;;;;;;;;;;;16.80;99.90;;;;;;5090747;28;19920;-56
2022/07/09 07:40:44;;;;;;;;;;;16.80;99.90;;;;;;5096451;28;19919;-55
2022/07/09 07:43:12;;;;;;;;;;;16.90;99.90;;;;;;5098497;28;19931;-55
2022/07/09 07:45:39;;;;;;;;;;;16.90;99.90;;;;;;5088632;28;19943;-56
2022/07/09 07:48:07;;;;;;;;;;;16.80;99.90;;;;;;5088527;28;19920;-55
2022/07/09 07:50:38;;;;;;;;;;;16.80;99.90;;;;;;5101700;28;20363;-54
2022/07/09 07:53:06;;;;;;;;;;;16.80;99.90;;;;;;5094014;28;19919;-55
2022/07/09 07:55:34;;;;;;;;;;;16.80;99.90;;;;;;5091509;28;19931;-55
2022/07/09 07:58:01;;;;;;;;;;;16.90;99.90;;;;;;5094741;28;20287;-57
2022/07/09 08:00:29;;;;;;;;;;;17.10;99.90;;;;;;5088994;28;19947;-54
2022/07/09 08:02:56;;;;;;;;;;;17.30;99.90;;;;;;5094146;28;19923;-55
2022/07/09 08:05:25;;;;;;;;;;;17.40;99.90;;;;;;5091239;28;19920;-55
2022/07/09 08:07:52;;;;;;;;;;;17.50;99.90;;;;;;5091696;28;20305;-56
2022/07/09 08:10:20;;;;;;;;;;;17.50;99.90;;;;;;5092100;28;19927;-55
2022/07/09 08:12:47;;;;;;;;;;;17.50;99.90;;;;;;5092230;28;19924;-56
2022/07/09 08:15:15;;;;;;;;;;;17.60;99.90;;;;;;5091857;28;19920;-54
2022/07/09 08:17:42;;;;;;;;;;;17.70;99.90;;;;;;5090489;28;19931;-55
2022/07/09 08:20:10;;;;;;;;;;;17.70;99.90;;;;;;5092184;28;20298;-55
2022/07/09 08:22:37;;;;;;;;;;;17.70;99.90;;;;;;5097888;28;19924;-56
2022/07/09 08:25:05;;;;;;;;;;;17.70;99.90;;;;;;5105222;28;20311;-54
2022/07/09 08:27:39;;;;;;;;;;;17.70;99.90;;;;;;5092313;28;19931;-54
2022/07/09 08:30:06;;;;;;;;;;;17.80;99.90;;;;;;5091652;28;19924;-54
2022/07/09 08:32:34;;;;;;;;;;;17.90;99.90;;;;;;5091914;28;19920;-54
2022/07/09 08:35:01;;;;;;;;;;;18.00;99.90;;;;;;5091688;28;19919;-56
2022/07/09 08:37:29;;;;;;;;;;;18.10;99.90;;;;;;5091550;28;20610;-55
2022/07/09 08:39:56;;;;;;;;;;;18.20;99.90;;;;;;5110371;28;19927;-58
2022/07/09 08:42:24;;;;;;;;;;;18.30;99.90;;;;;;5108946;28;19920;-58
2022/07/09 08:44:52;;;;;;;;;;;18.30;99.90;;;;;;5073707;28;20268;-56
2022/07/09 08:47:19;;;;;;;;;;;18.30;99.90;;;;;;5093464;28;19923;-57
2022/07/09 08:49:48;;;;;;;;;;;18.50;99.90;;;;;;5095481;28;19930;-56
2022/07/09 08:52:15;;;;;;;;;;;18.60;99.90;;;;;;5091353;28;20450;-58
2022/07/09 08:54:44;;;;;;;;;;;18.70;99.90;;;;;;5091885;28;19927;-59
2022/07/09 08:57:11;;;;;;;;;;;18.80;99.90;;;;;;5091212;28;19920;-61
2022/07/09 08:59:39;;;;;;;;;;;18.80;99.90;;;;;;5090844;28;19927;-59
2022/07/09 09:02:08;;;;;;;;;;;18.90;99.90;;;;;;5091348;28;19935;-59
2022/07/09 09:04:39;;;;;;;;;;;18.90;99.90;;;;;;5090792;28;20299;-59
2022/07/09 09:07:13;;;;;;;;;;;19.10;99.90;;;;;;5091333;28;19927;-58
2022/07/09 09:09:42;;;;;;;;;;;19.20;99.90;;;;;;5091480;28;20321;-57
2022/07/09 09:12:09;;;;;;;;;;;19.20;99.90;;;;;;5091010;28;19920;-59
2022/07/09 09:14:36;;;;;;;;;;;19.20;99.90;;;;;;5090945;28;19920;-59
2022/07/09 09:17:06;;;;;;;;;;;19.30;99.90;;;;;;5091310;28;19920;-58
2022/07/09 09:19:33;;;;;;;;;;;19.20;99.90;;;;;;5091002;28;19927;-56
2022/07/09 09:22:01;;;;;;;;;;;19.20;99.90;;;;;;5091333;28;19920;-57
2022/07/09 09:24:31;;;;;;;;;;;19.20;99.90;;;;;;5091467;28;19920;-59
2022/07/09 09:26:59;;;;;;;;;;;19.30;99.90;;;;;;5090957;28;20478;-55
2022/07/09 09:29:27;;;;;;;;;;;19.40;99.90;;;;;;5090654;28;20453;-55
2022/07/09 09:31:55;;;;;;;;;;;19.50;99.90;;;;;;5090716;28;20287;-56
2022/07/09 09:34:23;;;;;;;;;;;19.60;99.90;;;;;;5090704;28;20398;-55
2022/07/09 09:36:51;;;;;;;;;;;19.70;99.90;;;;;;5090852;28;19927;-55
2022/07/09 09:39:21;;;;;;;;;;;19.70;99.90;;;;;;5090519;28;19924;-55
2022/07/09 09:41:50;;;;;;;;;;;19.70;99.90;;;;;;5090224;28;19920;-55
2022/07/09 09:44:19;;;;;;;;;;;19.70;99.90;;;;;;5090427;28;20406;-55
2022/07/09 09:46:46;;;;;;;;;;;19.70;99.90;;;;;;5090609;28;19920;-59
2022/07/09 09:49:15;;;;;;;;;;;19.70;99.90;;;;;;5090256;28;19924;-59
2022/07/09 09:51:50;;;;;;;;;;;19.90;99.90;;;;;;5090536;28;20390;-59
2022/07/09 09:54:18;;;;;;;;;;;19.90;99.90;;;;;;5090217;28;19923;-58
2022/07/09 09:56:46;;;;;;;;;;;19.90;99.90;;;;;;5090799;28;19924;-58
2022/07/09 09:59:14;;;;;;;;;;;19.90;99.90;;;;;;5088530;28;19931;-59
2022/07/09 10:01:42;;;;;;;;;;;19.80;99.90;;;;;;5087545;28;19920;-55
2022/07/09 10:04:11;;;;;;;;;;;19.80;99.90;;;;;;5086653;28;20371;-55
2022/07/09 10:06:39;;;;;;;;;;;19.90;99.90;;;;;;5087108;28;19927;-59
2022/07/09 10:09:09;;;;;;;;;;;20.00;99.90;;;;;;5086825;28;19924;-63
2022/07/09 10:11:43;;;;;;;;;;;20.00;99.90;;;;;;5087827;28;19920;-60
2022/07/09 10:14:18;;;;;;;;;;;20.10;99.90;;;;;;5090703;28;19994;-60
2022/07/09 10:16:45;;;;;;;;;;;20.20;99.90;;;;;;5086205;28;20359;-60
2022/07/09 10:19:22;;;;;;;;;;;20.30;99.60;;;;;;5086987;28;19920;-61
2022/07/09 10:21:51;;;;;;;;;;;20.40;99.50;;;;;;5086402;28;19943;-61
2022/07/09 10:24:29;;;;;;;;;;;20.50;99.20;;;;;;5086121;28;19924;-60
2022/07/09 10:27:03;;;;;;;;;;;20.50;98.90;;;;;;5086880;28;20079;-61
2022/07/09 10:29:31;;;;;;;;;;;20.50;98.70;;;;;;5085970;28;20382;-61
2022/07/09 10:31:58;;;;;;;;;;;20.60;99.20;;;;;;5086293;28;20375;-57
2022/07/09 10:34:45;;;;;;;;;;;20.70;99.20;;;;;;5084608;28;19956;-55
2022/07/09 10:37:13;;;;;;;;;;;20.80;98.90;;;;;;5086419;28;19924;-56
2022/07/09 10:39:40;;;;;;;;;;;20.90;98.70;;;;;;5084847;28;19931;-55
2022/07/09 10:42:20;;;;;;;;;;;21.00;98.50;;;;;;5086205;28;19920;-55
2022/07/09 10:44:51;;;;;;;;;;;21.10;98.20;;;;;;5086232;28;19920;-57
2022/07/09 10:47:18;;;;;;;;;;;21.20;97.20;;;;;;5085916;28;20432;-56
2022/07/09 10:49:46;;;;;;;;;;;21.30;96.90;;;;;;5086083;28;19920;-55
2022/07/09 10:52:13;;;;;;;;;;;21.30;97.10;;;;;;5085935;28;20294;-56
2022/07/09 10:54:47;;;;;;;;;;;21.30;97.30;;;;;;5084445;28;19924;-56
2022/07/09 10:57:15;;;;;;;;;;;21.40;97.30;;;;;;5086289;28;19943;-56
2022/07/09 10:59:46;;;;;;;;;;;21.50;96.90;;;;;;5085828;28;20524;-56
2022/07/09 11:02:17;;;;;;;;;;;21.50;96.60;;;;;;5086024;28;20209;-58
2022/07/09 11:04:48;;;;;;;;;;;21.40;96.70;;;;;;5085847;28;19920;-57
2022/07/09 11:07:22;;;;;;;;;;;21.60;96.50;;;;;;5085453;28;19926;-56
2022/07/09 11:09:50;;;;;;;;;;;21.80;96.40;;;;;;5085808;28;19920;-56
2022/07/09 11:12:19;;;;;;;;;;;21.90;96.00;;;;;;5086141;28;20287;-56
2022/07/09 11:14:47;;;;;;;;;;;21.90;95.90;;;;;;5085548;28;19931;-56
2022/07/09 11:17:15;;;;;;;;;;;22.00;95.90;;;;;;5085299;28;20311;-56
2022/07/09 11:19:43;;;;;;;;;;;22.20;96.30;;;;;;5085529;28;19931;-57
2022/07/09 11:22:10;;;;;;;;;;;22.40;95.80;;;;;;5085799;28;19920;-56
2022/07/09 11:24:38;;;;;;;;;;;22.50;95.40;;;;;;5086294;28;19924;-56
2022/07/09 11:27:06;;;;;;;;;;;22.50;95.10;;;;;;5085594;28;19934;-55
2022/07/09 11:29:34;;;;;;;;;;;22.60;94.90;;;;;;5085321;28;19932;-58
2022/07/09 11:32:02;;;;;;;;;;;22.60;94.80;;;;;;5084807;28;20368;-57
2022/07/09 11:34:29;;;;;;;;;;;22.70;95.00;;;;;;5083717;28;19931;-59
2022/07/09 11:36:58;;;;;;;;;;;22.80;95.00;;;;;;5085435;28;19920;-59
2022/07/09 11:39:26;;;;;;;;;;;22.90;94.60;;;;;;5085005;28;19926;-60
2022/07/09 11:41:55;;;;;;;;;;;23.00;93.40;;;;;;5085352;28;20405;-59
2022/07/09 11:44:27;;;;;;;;;;;23.00;93.30;;;;;;5085371;28;19923;-56
2022/07/09 11:47:10;;;;;;;;;;;23.00;93.50;;;;;;5085959;28;20379;-57
2022/07/09 11:49:39;;;;;;;;;;;23.00;92.70;;;;;;5105377;28;19928;-56
2022/07/09 11:52:17;;;;;;;;;;;23.00;92.60;;;;;;5106391;28;19927;-57
2022/07/09 11:54:54;;;;;;;;;;;23.10;92.10;;;;;;5106367;28;19919;-60
2022/07/09 11:57:22;;;;;;;;;;;23.20;92.60;;;;;;5092384;28;19920;-60
2022/07/09 11:59:49;;;;;;;;;;;23.30;92.00;;;;;;5085507;28;19931;-58
2022/07/09 12:02:43;;;;;;;;;;;23.50;92.30;;;;;;5085084;28;20260;-59
2022/07/09 12:05:11;;;;;;;;;;;23.70;91.60;;;;;;5082277;28;19920;-58
2022/07/09 12:07:38;;;;;;;;;;;23.80;90.60;;;;;;5084711;28;19928;-60
2022/07/09 12:10:10;;;;;;;;;;;23.80;90.90;;;;;;5088520;28;20367;-61
2022/07/09 12:12:38;;;;;;;;;;;24.00;91.10;;;;;;5088181;28;20171;-61
2022/07/09 12:15:05;;;;;;;;;;;24.20;90.70;;;;;;5088214;28;19920;-59
2022/07/09 12:17:37;;;;;;;;;;;24.30;90.40;;;;;;5088299;28;19920;-62
2022/07/09 12:20:07;;;;;;;;;;;24.60;90.70;;;;;;5088323;28;19927;-61
2022/07/09 12:22:35;;;;;;;;;;;24.90;89.90;;;;;;5088219;28;19920;-61
2022/07/09 12:25:03;;;;;;;;;;;25.10;89.40;;;;;;5088295;28;20429;-60
2022/07/09 12:27:30;;;;;;;;;;;25.40;89.80;;;;;;5087514;28;19927;-61
2022/07/09 12:29:58;;;;;;;;;;;25.80;89.40;;;;;;5088586;28;20371;-60
2022/07/09 12:32:25;;;;;;;;;;;26.00;85.90;;;;;;5086379;28;19931;-61
2022/07/09 12:34:52;;;;;;;;;;;26.10;85.30;;;;;;5084935;28;19928;-60
2022/07/09 12:37:20;;;;;;;;;;;26.10;82.00;;;;;;5050320;28;19920;-61
2022/07/09 12:39:49;;;;;;;;;;;26.00;83.00;;;;;;5088194;28;19927;-57
2022/07/09 12:42:18;;;;;;;;;;;26.10;82.40;;;;;;5083463;28;19920;-60
2022/07/09 12:44:46;;;;;;;;;;;26.20;81.40;;;;;;5088282;28;19920;-60
2022/07/09 12:47:14;;;;;;;;;;;26.30;81.00;;;;;;5088488;28;19931;-62
2022/07/09 12:49:42;;;;;;;;;;;26.40;79.80;;;;;;5087109;28;20363;-60
2022/07/09 12:52:09;;;;;;;;;;;26.60;80.90;;;;;;5088708;28;19927;-61
2022/07/09 12:54:37;;;;;;;;;;;26.70;77.90;;;;;;5088022;28;20359;-62
2022/07/09 12:57:05;;;;;;;;;;;26.80;79.10;;;;;;5088454;28;19927;-61
2022/07/09 12:59:36;;;;;;;;;;;26.90;78.80;;;;;;5088065;28;19924;-60
2022/07/09 13:02:04;;;;;;;;;;;27.10;78.40;;;;;;5088042;28;20287;-60
2022/07/09 13:04:32;;;;;;;;;;;27.40;79.10;;;;;;5087856;28;19931;-61
2022/07/09 13:07:00;;;;;;;;;;;27.80;76.80;;;;;;5088300;28;19923;-57
2022/07/09 13:09:27;;;;;;;;;;;28.10;76.10;;;;;;5087113;28;19943;-60
2022/07/09 13:11:55;;;;;;;;;;;28.20;74.80;;;;;;5088079;28;19919;-58
2022/07/09 13:14:22;;;;;;;;;;;28.30;76.40;;;;;;5087084;28;19935;-56
2022/07/09 13:16:50;;;;;;;;;;;28.50;74.60;;;;;;5088049;28;19931;-56
2022/07/09 13:19:37;;;;;;;;;;;28.50;73.50;;;;;;5087490;28;19924;-56
2022/07/09 13:22:07;;;;;;;;;;;28.50;73.00;;;;;;5087776;28;19924;-56
2022/07/09 13:24:35;;;;;;;;;;;28.50;72.30;;;;;;5086298;28;20363;-57
2022/07/09 13:27:07;;;;;;;;;;;28.50;71.60;;;;;;5087608;28;19931;-57
2022/07/09 13:29:35;;;;;;;;;;;28.40;71.70;;;;;;5087239;28;20559;-58
2022/07/09 13:32:03;;;;;;;;;;;28.40;72.60;;;;;;5087038;28;19927;-57
2022/07/09 13:34:31;;;;;;;;;;;28.40;72.00;;;;;;5086483;28;19927;-57
2022/07/09 13:36:58;;;;;;;;;;;28.50;70.90;;;;;;5087735;28;19923;-57
2022/07/09 13:39:25;;;;;;;;;;;28.60;71.90;;;;;;5087477;28;19923;-57
2022/07/09 13:41:53;;;;;;;;;;;28.80;70.60;;;;;;5087819;28;19920;-56
2022/07/09 13:44:20;;;;;;;;;;;29.00;69.50;;;;;;5087044;28;20413;-57
2022/07/09 13:46:48;;;;;;;;;;;29.10;70.00;;;;;;5087849;28;19927;-57
2022/07/09 13:49:16;;;;;;;;;;;29.20;68.60;;;;;;5088475;28;19920;-56
2022/07/09 13:51:49;;;;;;;;;;;29.20;67.90;;;;;;5085951;28;19939;-56
2022/07/09 13:54:17;;;;;;;;;;;29.10;67.80;;;;;;5087064;28;20397;-57
2022/07/09 13:56:44;;;;;;;;;;;29.00;67.60;;;;;;5086932;28;19920;-57
2022/07/09 13:59:12;;;;;;;;;;;29.00;66.50;;;;;;5086487;28;20445;-56
2022/07/09 14:01:39;;;;;;;;;;;28.90;67.00;;;;;;5087130;28;19920;-57
2022/07/09 14:04:07;;;;;;;;;;;28.80;66.10;;;;;;5086290;28;19931;-57
2022/07/09 14:06:34;;;;;;;;;;;28.80;67.50;;;;;;5087330;28;19927;-56
2022/07/09 14:09:11;;;;;;;;;;;28.90;67.70;;;;;;5086627;28;19923;-56
2022/07/09 14:11:39;;;;;;;;;;;29.10;67.00;;;;;;5086676;28;19927;-57
2022/07/09 14:14:06;;;;;;;;;;;29.20;65.20;;;;;;5087509;28;19933;-58
2022/07/09 14:16:34;;;;;;;;;;;29.20;65.10;;;;;;5087564;28;19927;-57
2022/07/09 14:19:02;;;;;;;;;;;29.20;65.80;;;;;;5086294;28;20291;-57
2022/07/09 14:21:30;;;;;;;;;;;29.30;66.40;;;;;;5087191;28;19924;-59
2022/07/09 14:23:57;;;;;;;;;;;29.40;65.90;;;;;;5086431;28;20128;-60
2022/07/09 14:26:25;;;;;;;;;;;29.60;65.60;;;;;;5086157;28;19931;-61